createdAt,value
2023-03-05T00:01:15.505Z,5.32
2023-03-05T00:03:42.620Z,5.52
2023-03-05T00:06:09.860Z,5.62
2023-03-05T00:08:37.221Z,5.79
2023-03-05T00:11:10.350Z,6.00
2023-03-05T00:13:38.550Z,6.01
2023-03-05T00:16:08.785Z,5.92
2023-03-05T00:18:35.818Z,6.04
2023-03-05T00:21:03.321Z,6.06
2023-03-05T00:23:30.446Z,6.01
2023-03-05T00:26:00.855Z,6.09
2023-03-05T00:28:27.809Z,6.07
2023-03-05T00:30:54.769Z,5.74
2023-03-05T00:33:22.131Z,5.79
2023-03-05T00:35:49.247Z,5.63
2023-03-05T00:38:16.674Z,5.69
2023-03-05T00:40:43.570Z,5.62
2023-03-05T00:43:11.142Z,5.58
2023-03-05T00:45:39.117Z,5.55
2023-03-05T00:48:06.316Z,5.37
2023-03-05T00:50:33.935Z,5.16
2023-03-05T00:53:03.893Z,5.17
2023-03-05T00:55:36.670Z,4.98
2023-03-05T00:58:06.690Z,5.01
2023-03-05T01:00:37.127Z,5.09
2023-03-05T01:03:04.772Z,5.28
2023-03-05T01:05:32.105Z,5.17
2023-03-05T01:07:59.197Z,5.22
2023-03-05T01:10:32.327Z,5.10
2023-03-05T01:12:59.184Z,5.08
2023-03-05T01:15:26.409Z,5.01
2023-03-05T01:17:53.556Z,4.99
2023-03-05T01:20:22.328Z,4.90
2023-03-05T01:22:49.346Z,4.72
2023-03-05T01:25:17.475Z,4.64
2023-03-05T01:27:44.927Z,4.52
2023-03-05T01:30:14.100Z,4.78
2023-03-05T01:32:41.316Z,4.86
2023-03-05T01:35:09.058Z,5.06
2023-03-05T01:37:35.920Z,4.94
2023-03-05T01:40:03.127Z,4.71
2023-03-05T01:42:30.431Z,4.79
2023-03-05T01:45:03.607Z,4.40
2023-03-05T01:47:30.821Z,4.40
2023-03-05T01:49:57.884Z,4.29
2023-03-05T01:52:27.679Z,4.34
2023-03-05T01:54:59.753Z,4.27
2023-03-05T01:57:40.268Z,4.52
2023-03-05T02:00:13.994Z,4.78
2023-03-05T02:02:43.565Z,4.97
2023-03-05T02:05:27.209Z,5.11
2023-03-05T02:08:03.969Z,4.85
2023-03-05T02:10:34.190Z,4.76
2023-03-05T02:13:04.589Z,4.42
2023-03-05T02:15:33.622Z,3.78
2023-03-05T02:18:01.671Z,3.39
2023-03-05T02:20:31.552Z,3.14
2023-03-05T02:22:58.573Z,3.15
2023-03-05T02:25:27.956Z,3.23
2023-03-05T02:28:00.477Z,3.24
2023-03-05T02:30:28.852Z,3.32
2023-03-05T02:32:55.856Z,3.29
2023-03-05T02:35:23.800Z,3.33
2023-03-05T02:37:51.427Z,3.40
2023-03-05T02:40:18.666Z,3.46
2023-03-05T02:42:46.723Z,3.52
2023-03-05T02:45:15.550Z,3.67
2023-03-05T02:47:42.519Z,3.72
2023-03-05T02:50:11.821Z,3.90
2023-03-05T02:52:39.515Z,3.49
2023-03-05T02:55:11.877Z,4.02
2023-03-05T02:57:40.399Z,4.01
2023-03-05T03:00:08.565Z,4.21
2023-03-05T03:02:35.681Z,4.30
2023-03-05T03:05:02.591Z,4.31
2023-03-05T03:07:30.637Z,4.33
2023-03-05T03:09:57.606Z,4.16
2023-03-05T03:12:24.456Z,4.09
2023-03-05T03:14:51.827Z,4.19
2023-03-05T03:17:19.176Z,4.26
2023-03-05T03:19:46.562Z,4.29
2023-03-05T03:22:15.574Z,4.42
2023-03-05T03:24:44.082Z,4.35
2023-03-05T03:27:11.065Z,4.45
2023-03-05T03:29:38.504Z,4.52
2023-03-05T03:32:05.795Z,4.51
2023-03-05T03:34:32.679Z,4.37
2023-03-05T03:36:59.521Z,4.39
2023-03-05T03:39:26.578Z,4.54
2023-03-05T03:41:53.761Z,4.58
2023-03-05T03:44:21.775Z,4.66
2023-03-05T03:46:50.603Z,4.73
2023-03-05T03:49:25.974Z,4.64
2023-03-05T03:51:58.308Z,4.61
2023-03-05T03:54:25.669Z,4.68
2023-03-05T03:56:52.915Z,4.67
2023-03-05T03:59:19.814Z,4.66
2023-03-05T04:01:47.985Z,4.42
2023-03-05T04:04:15.543Z,4.45
2023-03-05T04:06:42.515Z,4.27
2023-03-05T04:09:09.722Z,3.89
2023-03-05T04:11:37.851Z,3.78
2023-03-05T04:14:05.945Z,3.59
2023-03-05T04:16:33.219Z,3.64
2023-03-05T04:19:00.222Z,3.88
2023-03-05T04:21:27.337Z,3.82
2023-03-05T04:23:54.169Z,3.40
2023-03-05T04:26:21.111Z,3.40
2023-03-05T04:28:48.642Z,3.22
2023-03-05T04:31:15.847Z,2.95
2023-03-05T04:33:42.972Z,3.03
2023-03-05T04:36:10.051Z,3.03
2023-03-05T04:38:36.992Z,3.01
2023-03-05T04:41:04.222Z,3.02
2023-03-05T04:43:31.345Z,2.99
2023-03-05T04:45:58.762Z,3.04
2023-03-05T04:48:25.792Z,3.13
2023-03-05T04:50:52.782Z,3.29
2023-03-05T04:53:19.667Z,3.40
2023-03-05T04:55:46.600Z,3.44
2023-03-05T04:58:13.464Z,3.49
2023-03-05T05:00:40.393Z,3.48
2023-03-05T05:03:07.615Z,3.45
2023-03-05T05:05:34.555Z,3.59
2023-03-05T05:08:01.571Z,3.55
2023-03-05T05:10:28.560Z,3.44
2023-03-05T05:12:55.477Z,3.48
2023-03-05T05:15:22.507Z,3.63
2023-03-05T05:17:49.502Z,3.59
2023-03-05T05:20:17.385Z,3.50
2023-03-05T05:22:44.539Z,3.57
2023-03-05T05:25:11.999Z,3.43
2023-03-05T05:27:40.939Z,3.41
2023-03-05T05:30:08.661Z,3.53
2023-03-05T05:32:35.930Z,3.70
2023-03-05T05:35:04.129Z,4.00
2023-03-05T05:37:31.133Z,4.16
2023-03-05T05:39:58.278Z,4.38
2023-03-05T05:42:25.486Z,4.72
2023-03-05T05:44:53.029Z,4.94
2023-03-05T05:47:20.129Z,5.01
2023-03-05T05:49:47.041Z,5.18
2023-03-05T05:52:14.331Z,5.14
2023-03-05T05:54:41.229Z,5.12
2023-03-05T05:57:08.491Z,5.18
2023-03-05T05:59:35.558Z,4.89
2023-03-05T06:02:02.510Z,4.81
2023-03-05T06:04:29.609Z,4.88
2023-03-05T06:06:56.729Z,4.86
2023-03-05T06:09:23.676Z,4.84
2023-03-05T06:11:50.663Z,4.90
2023-03-05T06:14:17.687Z,5.16
2023-03-05T06:16:44.979Z,5.20
2023-03-05T06:19:13.800Z,5.10
2023-03-05T06:21:41.027Z,5.13
2023-03-05T06:24:08.116Z,5.10
2023-03-05T06:26:35.094Z,4.97
2023-03-05T06:29:02.582Z,4.97
2023-03-05T06:31:30.422Z,5.09
2023-03-05T06:34:03.823Z,5.24
2023-03-05T06:36:31.447Z,5.17
2023-03-05T06:38:59.017Z,5.38
2023-03-05T06:41:28.849Z,5.70
2023-03-05T06:43:56.192Z,5.87
2023-03-05T06:46:29.188Z,6.03
2023-03-05T06:48:57.834Z,6.23
2023-03-05T06:51:30.795Z,6.27
2023-03-05T06:54:02.800Z,6.30
2023-03-05T06:56:30.087Z,6.68
2023-03-05T06:58:57.402Z,6.73
2023-03-05T07:01:24.474Z,6.99
2023-03-05T07:03:53.728Z,7.05
2023-03-05T07:06:21.664Z,7.22
2023-03-05T07:08:49.264Z,7.18
2023-03-05T07:11:19.573Z,7.08
2023-03-05T07:13:50.166Z,7.02
2023-03-05T07:16:26.439Z,7.01
2023-03-05T07:18:54.212Z,6.72
2023-03-05T07:21:27.370Z,6.67
2023-03-05T07:23:55.704Z,6.68
2023-03-05T07:26:23.298Z,6.66
2023-03-05T07:28:50.584Z,6.73
2023-03-05T07:31:30.204Z,6.44
2023-03-05T07:34:03.195Z,6.61
2023-03-05T07:36:30.926Z,6.54
2023-03-05T07:38:57.930Z,6.80
2023-03-05T07:41:24.995Z,6.84
2023-03-05T07:43:54.095Z,7.15
2023-03-05T07:46:25.060Z,7.33
2023-03-05T07:48:52.722Z,7.58
2023-03-05T07:51:20.448Z,7.65
2023-03-05T07:53:49.485Z,7.90
2023-03-05T07:56:29.060Z,7.96
2023-03-05T07:58:56.056Z,7.94
2023-03-05T08:01:23.333Z,8.14
2023-03-05T08:03:50.403Z,8.09
2023-03-05T08:06:17.601Z,8.30
2023-03-05T08:08:45.003Z,8.44
2023-03-05T08:11:14.429Z,8.51
2023-03-05T08:13:42.471Z,8.47
2023-03-05T08:16:14.133Z,8.55
2023-03-05T08:18:44.804Z,8.47
2023-03-05T08:21:20.051Z,8.58
2023-03-05T08:23:47.322Z,8.59
2023-03-05T08:26:18.896Z,8.40
2023-03-05T08:28:46.112Z,8.60
2023-03-05T08:31:14.736Z,8.58
2023-03-05T08:33:43.106Z,8.69
2023-03-05T08:36:10.724Z,8.43
2023-03-05T08:38:37.912Z,8.46
2023-03-05T08:41:05.262Z,8.71
2023-03-05T08:43:35.417Z,8.62
2023-03-05T08:46:02.985Z,8.46
2023-03-05T08:48:30.449Z,8.71
2023-03-05T08:51:00.830Z,8.89
2023-03-05T08:53:27.688Z,9.02
2023-03-05T08:55:59.368Z,9.20
2023-03-05T08:58:26.899Z,9.22
2023-03-05T09:00:53.843Z,9.33
2023-03-05T09:03:20.929Z,9.43
2023-03-05T09:05:48.068Z,9.58
2023-03-05T09:08:15.445Z,9.70
2023-03-05T09:10:46.333Z,9.78
2023-03-05T09:13:13.337Z,9.90
2023-03-05T09:15:40.318Z,10.12
2023-03-05T09:18:09.105Z,10.38
2023-03-05T09:20:36.871Z,10.05
2023-03-05T09:23:04.305Z,9.86
2023-03-05T09:25:31.498Z,9.94
2023-03-05T09:27:58.449Z,9.93
2023-03-05T09:30:27.787Z,10.15
2023-03-05T09:32:55.110Z,10.18
2023-03-05T09:35:22.466Z,10.27
2023-03-05T09:37:51.438Z,10.58
2023-03-05T09:40:27.739Z,10.44
2023-03-05T09:43:24.589Z,10.54
2023-03-05T09:46:01.604Z,10.87
2023-03-05T09:48:44.556Z,10.94
2023-03-05T09:51:18.067Z,11.11
2023-03-05T09:54:01.684Z,10.81
2023-03-05T09:56:43.462Z,10.78
2023-03-05T09:59:36.036Z,10.94
2023-03-05T10:02:20.280Z,11.01
2023-03-05T10:04:58.574Z,11.02
2023-03-05T10:07:36.734Z,11.05
2023-03-05T10:10:33.196Z,10.77
2023-03-05T10:13:11.441Z,10.65
2023-03-05T10:15:51.956Z,10.65
2023-03-05T10:18:28.120Z,10.81
2023-03-05T10:21:22.239Z,10.87
2023-03-05T10:24:17.863Z,10.97
2023-03-05T10:26:53.885Z,11.06
2023-03-05T10:29:48.170Z,11.00
2023-03-05T10:32:21.150Z,10.76
2023-03-05T10:35:11.376Z,10.80
2023-03-05T10:38:08.766Z,10.91
2023-03-05T10:41:19.924Z,10.68
2023-03-05T10:43:51.635Z,10.86
2023-03-05T10:46:22.568Z,10.83
2023-03-05T10:49:21.127Z,10.43
2023-03-05T10:51:53.484Z,10.59
2023-03-05T10:54:38.783Z,10.52
2023-03-05T10:57:15.796Z,10.78
2023-03-05T10:59:48.968Z,10.57
2023-03-05T11:02:16.264Z,10.51
2023-03-05T11:04:44.273Z,10.53
2023-03-05T11:07:17.187Z,10.52
2023-03-05T11:10:04.606Z,10.56
2023-03-05T11:12:39.743Z,10.57
2023-03-05T11:15:26.343Z,10.65
2023-03-05T11:18:17.883Z,10.66
2023-03-05T11:20:45.495Z,10.67
2023-03-05T11:23:18.595Z,10.70
2023-03-05T11:26:13.059Z,10.50
2023-03-05T11:28:52.299Z,10.54
2023-03-05T11:31:19.273Z,10.48
2023-03-05T11:34:04.941Z,10.51
2023-03-05T11:36:38.838Z,10.58
2023-03-05T11:39:17.516Z,10.54
2023-03-05T11:41:56.429Z,10.54
2023-03-05T11:44:35.230Z,10.60
2023-03-05T11:47:40.474Z,10.46
2023-03-05T11:50:07.548Z,10.51
2023-03-05T11:52:45.193Z,10.52
2023-03-05T11:55:18.723Z,10.47
2023-03-05T11:57:53.644Z,10.55
2023-03-05T12:00:29.889Z,10.50
2023-03-05T12:03:00.820Z,10.41
2023-03-05T12:05:30.183Z,10.37
2023-03-05T12:08:01.930Z,10.41
2023-03-05T12:10:29.406Z,10.34
2023-03-05T12:13:04.872Z,10.48
2023-03-05T12:15:41.192Z,10.47
2023-03-05T12:18:35.338Z,10.52
2023-03-05T12:21:21.859Z,10.40
2023-03-05T12:23:53.588Z,10.57
2023-03-05T12:27:02.353Z,10.23
2023-03-05T12:29:46.761Z,10.13
2023-03-05T12:32:25.728Z,10.14
2023-03-05T12:35:18.492Z,10.17
2023-03-05T12:37:45.456Z,10.25
2023-03-05T12:40:28.227Z,10.20
2023-03-05T12:43:06.377Z,10.23
2023-03-05T12:45:41.324Z,10.22
2023-03-05T12:48:12.674Z,10.29
2023-03-05T12:50:39.682Z,10.21
2023-03-05T12:53:14.289Z,10.32
2023-03-05T12:55:46.039Z,10.33
2023-03-05T12:58:43.312Z,10.36
2023-03-05T13:01:28.803Z,10.55
2023-03-05T13:04:11.817Z,10.46
2023-03-05T13:06:39.689Z,10.68
2023-03-05T13:09:25.025Z,10.64
2023-03-05T13:11:54.304Z,10.90
2023-03-05T13:14:33.336Z,10.90
2023-03-05T13:17:01.677Z,10.86
2023-03-05T13:19:32.988Z,10.77
2023-03-05T13:22:02.836Z,10.66
2023-03-05T13:24:30.755Z,10.70
2023-03-05T13:26:57.744Z,10.62
2023-03-05T13:29:30.983Z,10.74
2023-03-05T13:32:04.373Z,10.71
2023-03-05T13:34:47.169Z,10.80
2023-03-05T13:37:24.208Z,10.74
2023-03-05T13:40:07.457Z,10.68
2023-03-05T13:42:36.314Z,10.75
2023-03-05T13:45:20.972Z,10.79
2023-03-05T13:47:58.213Z,10.70
2023-03-05T13:50:37.318Z,10.84
2023-03-05T13:53:19.279Z,10.88
2023-03-05T13:55:50.748Z,10.86
2023-03-05T13:58:44.456Z,10.93
2023-03-05T14:01:18.475Z,10.97
2023-03-05T14:03:50.455Z,10.95
2023-03-05T14:06:21.700Z,10.87
2023-03-05T14:08:54.578Z,10.84
2023-03-05T14:11:21.625Z,10.93
2023-03-05T14:13:49.395Z,10.99
2023-03-05T14:16:26.482Z,11.10
2023-03-05T14:19:02.309Z,11.10
2023-03-05T14:21:50.510Z,11.03
2023-03-05T14:24:28.688Z,10.95
2023-03-05T14:27:03.394Z,10.99
2023-03-05T14:29:32.793Z,11.02
2023-03-05T14:32:02.967Z,11.01
2023-03-05T14:34:35.070Z,11.05
2023-03-05T14:37:05.472Z,10.99
2023-03-05T14:39:35.217Z,10.90
2023-03-05T14:42:24.357Z,10.83
2023-03-05T14:44:51.524Z,10.88
2023-03-05T14:47:18.525Z,10.94
2023-03-05T14:49:45.343Z,10.92
2023-03-05T14:52:16.980Z,11.00
2023-03-05T14:54:44.755Z,11.05
2023-03-05T14:57:24.484Z,10.95
2023-03-05T14:59:51.371Z,10.86
2023-03-05T15:02:21.910Z,10.84
2023-03-05T15:04:49.309Z,10.98
2023-03-05T15:07:32.367Z,11.00
2023-03-05T15:10:02.129Z,10.99
2023-03-05T15:12:30.590Z,10.99
2023-03-05T15:14:57.741Z,10.79
2023-03-05T15:17:35.284Z,10.76
2023-03-05T15:20:08.105Z,10.64
2023-03-05T15:22:35.162Z,10.68
2023-03-05T15:25:02.487Z,10.67
2023-03-05T15:27:30.206Z,10.71
2023-03-05T15:29:57.277Z,10.53
2023-03-05T15:32:27.514Z,10.59
2023-03-05T15:34:55.038Z,9.82
2023-03-05T15:37:22.306Z,10.42
2023-03-05T15:39:50.028Z,10.45
2023-03-05T15:42:17.248Z,10.39
2023-03-05T15:44:44.272Z,10.42
2023-03-05T15:47:11.524Z,10.39
2023-03-05T15:49:38.952Z,10.35
2023-03-05T15:52:05.887Z,10.28
2023-03-05T15:54:32.874Z,10.28
2023-03-05T15:56:59.817Z,10.25
2023-03-05T15:59:27.871Z,10.18
2023-03-05T16:01:54.897Z,10.16
2023-03-05T16:04:21.932Z,10.02
2023-03-05T16:06:50.520Z,10.13
2023-03-05T16:09:20.771Z,10.06
2023-03-05T16:11:51.671Z,9.91
2023-03-05T16:14:24.438Z,9.79
2023-03-05T16:16:55.285Z,9.63
2023-03-05T16:19:24.482Z,9.61
2023-03-05T16:21:51.418Z,9.59
2023-03-05T16:24:18.513Z,9.53
2023-03-05T16:26:45.432Z,9.48
2023-03-05T16:29:12.726Z,9.42
2023-03-05T16:31:41.656Z,9.52
2023-03-05T16:34:09.594Z,9.55
2023-03-05T16:36:36.644Z,9.52
2023-03-05T16:39:05.283Z,9.44
2023-03-05T16:41:32.913Z,9.43
2023-03-05T16:44:00.320Z,9.30
2023-03-05T16:46:29.625Z,9.36
2023-03-05T16:48:58.036Z,9.24
2023-03-05T16:51:26.411Z,9.23
2023-03-05T16:53:55.612Z,9.07
2023-03-05T16:56:23.070Z,9.09
2023-03-05T16:58:53.210Z,9.01
2023-03-05T17:01:21.206Z,8.94
2023-03-05T17:03:48.859Z,9.05
2023-03-05T17:06:18.772Z,8.90
2023-03-05T17:08:47.511Z,8.78
2023-03-05T17:11:14.871Z,8.79
2023-03-05T17:13:42.522Z,8.80
2023-03-05T17:16:11.993Z,8.80
2023-03-05T17:18:39.110Z,8.86
2023-03-05T17:21:07.747Z,8.69
2023-03-05T17:23:36.525Z,8.72
2023-03-05T17:26:09.081Z,8.67
2023-03-05T17:28:36.116Z,8.62
2023-03-05T17:31:04.094Z,8.66
2023-03-05T17:33:35.745Z,8.63
2023-03-05T17:36:03.299Z,8.56
2023-03-05T17:38:31.535Z,8.61
2023-03-05T17:40:58.641Z,8.51
2023-03-05T17:43:25.741Z,8.63
2023-03-05T17:45:52.932Z,8.56
2023-03-05T17:48:19.998Z,8.48
2023-03-05T17:50:47.007Z,8.43
2023-03-05T17:53:14.156Z,8.28
2023-03-05T17:55:41.074Z,8.47
2023-03-05T17:58:08.368Z,8.42
2023-03-05T18:00:36.117Z,8.41
2023-03-05T18:03:03.085Z,8.38
2023-03-05T18:05:30.648Z,8.35
2023-03-05T18:07:57.963Z,8.22
2023-03-05T18:10:26.486Z,8.20
2023-03-05T18:12:54.461Z,8.27
2023-03-05T18:15:23.177Z,8.20
2023-03-05T18:17:50.805Z,8.29
2023-03-05T18:20:26.586Z,8.04
2023-03-05T18:22:54.346Z,8.09
2023-03-05T18:25:22.208Z,8.10
2023-03-05T18:27:49.282Z,8.06
2023-03-05T18:30:16.273Z,7.97
2023-03-05T18:32:44.358Z,8.05
2023-03-05T18:35:12.231Z,8.00
2023-03-05T18:37:39.976Z,7.93
2023-03-05T18:40:09.759Z,7.94
2023-03-05T18:42:37.577Z,7.98
2023-03-05T18:45:06.863Z,8.03
2023-03-05T18:47:34.092Z,8.12
2023-03-05T18:50:01.267Z,8.07
2023-03-05T18:52:29.798Z,8.10
2023-03-05T18:54:59.860Z,8.09
2023-03-05T18:57:27.139Z,8.11
2023-03-05T18:59:54.259Z,8.11
2023-03-05T19:02:21.199Z,8.17
2023-03-05T19:04:48.241Z,8.00
2023-03-05T19:07:15.394Z,8.00
2023-03-05T19:09:59.706Z,8.02
2023-03-05T19:12:35.263Z,8.04
2023-03-05T19:15:03.607Z,8.01
2023-03-05T19:17:32.418Z,8.01
2023-03-05T19:19:59.988Z,7.98
2023-03-05T19:22:28.602Z,8.06
2023-03-05T19:24:56.086Z,7.99
2023-03-05T19:27:24.947Z,8.08
2023-03-05T19:29:53.808Z,8.11
2023-03-05T19:32:24.288Z,8.08
2023-03-05T19:34:55.606Z,8.14
2023-03-05T19:37:22.698Z,8.07
2023-03-05T19:39:49.797Z,8.07
2023-03-05T19:42:16.815Z,7.96
2023-03-05T19:44:43.755Z,7.86
2023-03-05T19:47:11.093Z,8.02
2023-03-05T19:49:38.105Z,7.95
2023-03-05T19:52:06.346Z,7.90
2023-03-05T19:54:33.588Z,7.85
2023-03-05T19:57:00.591Z,7.85
2023-03-05T19:59:27.626Z,7.84
2023-03-05T20:01:54.852Z,7.88
2023-03-05T20:04:24.235Z,7.83
2023-03-05T20:06:51.201Z,7.90
2023-03-05T20:09:18.160Z,7.75
2023-03-05T20:11:46.005Z,7.80
2023-03-05T20:14:14.772Z,7.78
2023-03-05T20:16:43.469Z,7.74
2023-03-05T20:19:16.860Z,7.86
2023-03-05T20:21:45.542Z,7.86
2023-03-05T20:24:15.124Z,7.80
2023-03-05T20:26:44.093Z,7.78
2023-03-05T20:29:12.094Z,7.75
2023-03-05T20:31:40.177Z,7.81
2023-03-05T20:34:10.007Z,7.72
2023-03-05T20:36:37.166Z,7.82
2023-03-05T20:39:07.492Z,7.56
2023-03-05T20:41:37.705Z,7.50
2023-03-05T20:44:06.256Z,7.48
2023-03-05T20:46:36.229Z,7.46
2023-03-05T20:49:21.615Z,7.47
2023-03-05T20:51:50.875Z,7.48
2023-03-05T20:54:18.708Z,7.42
2023-03-05T20:56:45.919Z,7.37
2023-03-05T20:59:13.151Z,7.45
2023-03-05T21:01:41.029Z,7.37
2023-03-05T21:04:09.016Z,7.58
2023-03-05T21:06:36.960Z,7.65
2023-03-05T21:09:04.222Z,7.63
2023-03-05T21:11:32.127Z,7.69
2023-03-05T21:13:59.453Z,7.71
2023-03-05T21:16:28.136Z,7.73
2023-03-05T21:18:57.397Z,7.64
2023-03-05T21:21:24.918Z,7.63
2023-03-05T21:23:52.320Z,7.71
2023-03-05T21:26:19.382Z,7.63
2023-03-05T21:28:46.352Z,7.66
2023-03-05T21:31:21.396Z,7.62
2023-03-05T21:33:49.494Z,7.63
2023-03-05T21:36:19.386Z,7.70
2023-03-05T21:38:50.718Z,7.53
2023-03-05T21:41:20.371Z,7.50
2023-03-05T21:43:47.276Z,7.55
2023-03-05T21:46:14.448Z,7.65
2023-03-05T21:48:41.413Z,7.68
2023-03-05T21:51:11.564Z,7.63
2023-03-05T21:53:38.519Z,7.71
2023-03-05T21:56:12.401Z,7.71
2023-03-05T21:58:39.473Z,7.70
2023-03-05T22:01:06.433Z,7.75
2023-03-05T22:03:33.418Z,7.76
2023-03-05T22:06:00.414Z,7.70
2023-03-05T22:08:29.969Z,7.62
2023-03-05T22:10:57.035Z,7.50
2023-03-05T22:13:23.984Z,7.58
2023-03-05T22:15:53.486Z,7.55
2023-03-05T22:18:23.414Z,7.54
2023-03-05T22:20:50.871Z,7.57
2023-03-05T22:23:19.081Z,7.42
2023-03-05T22:25:46.034Z,7.59
2023-03-05T22:28:13.760Z,7.63
2023-03-05T22:30:45.238Z,7.40
2023-03-05T22:33:12.866Z,7.12
2023-03-05T22:35:41.260Z,7.27
2023-03-05T22:38:10.072Z,7.19
2023-03-05T22:40:41.524Z,6.99
2023-03-05T22:43:08.597Z,6.94
2023-03-05T22:45:35.579Z,7.04
2023-03-05T22:48:02.795Z,6.99
2023-03-05T22:50:29.862Z,7.17
2023-03-05T22:52:56.986Z,7.17
2023-03-05T22:55:24.016Z,7.21
2023-03-05T22:57:51.155Z,7.00
2023-03-05T23:00:27.018Z,6.76
2023-03-05T23:02:54.293Z,6.79
2023-03-05T23:05:21.496Z,6.81
2023-03-05T23:07:49.512Z,6.85
2023-03-05T23:10:20.862Z,6.85
2023-03-05T23:12:50.500Z,6.73
2023-03-05T23:15:23.473Z,6.35
2023-03-05T23:17:50.452Z,6.31
2023-03-05T23:20:20.952Z,6.33
2023-03-05T23:22:49.073Z,6.48
2023-03-05T23:25:16.614Z,6.33
2023-03-05T23:27:45.050Z,6.40
2023-03-05T23:30:31.172Z,6.41
2023-03-05T23:33:14.651Z,6.52
2023-03-05T23:36:01.939Z,6.37
2023-03-05T23:38:30.215Z,6.25
2023-03-05T23:41:01.481Z,6.19
2023-03-05T23:43:29.274Z,6.07
2023-03-05T23:45:56.988Z,5.97
2023-03-05T23:48:25.942Z,6.00
2023-03-05T23:50:53.193Z,6.08
2023-03-05T23:53:25.987Z,6.11
2023-03-05T23:55:53.825Z,6.08
2023-03-05T23:58:21.580Z,6.11
